createdAt,value
2018-08-28T00:01:53.458Z,86.26
2018-08-28T00:04:22.422Z,86.41
2018-08-28T00:06:51.397Z,86.46
2018-08-28T00:09:20.378Z,86.37
2018-08-28T00:11:49.378Z,86.51
2018-08-28T00:14:20.082Z,86.60
2018-08-28T00:16:49.052Z,86.17
2018-08-28T00:19:18.021Z,86.07
2018-08-28T00:21:47.409Z,86.08
2018-08-28T00:24:16.375Z,86.07
2018-08-28T00:26:45.506Z,86.02
2018-08-28T00:29:14.486Z,86.48
2018-08-28T00:31:43.444Z,86.74
2018-08-28T00:34:12.413Z,86.87
2018-08-28T00:36:41.374Z,86.62
2018-08-28T00:39:10.338Z,86.61
2018-08-28T00:41:39.301Z,87.31
2018-08-28T00:44:08.334Z,87.46
2018-08-28T00:46:37.682Z,87.14
2018-08-28T00:49:06.667Z,87.31
2018-08-28T00:51:35.658Z,87.08
2018-08-28T00:54:04.678Z,87.20
2018-08-28T00:56:33.657Z,86.94
2018-08-28T00:59:02.666Z,86.83
2018-08-28T01:01:31.658Z,86.84
2018-08-28T01:04:00.677Z,87.32
2018-08-28T01:06:29.742Z,86.96
2018-08-28T01:08:58.761Z,86.95
2018-08-28T01:11:27.723Z,87.24
2018-08-28T01:13:56.694Z,87.23
2018-08-28T01:16:25.708Z,87.30
2018-08-28T01:18:54.674Z,87.31
2018-08-28T01:21:23.680Z,87.52
2018-08-28T01:23:52.709Z,87.76
2018-08-28T01:26:21.728Z,87.60
2018-08-28T01:28:50.725Z,87.64
2018-08-28T01:31:19.712Z,87.62
2018-08-28T01:33:48.718Z,86.93
2018-08-28T01:36:17.701Z,87.19
2018-08-28T01:38:46.721Z,87.16
2018-08-28T01:41:15.706Z,87.75
2018-08-28T01:43:44.681Z,88.12
2018-08-28T01:46:13.702Z,88.02
2018-08-28T01:48:42.686Z,87.64
2018-08-28T01:51:11.698Z,87.50
2018-08-28T01:53:40.675Z,87.65
2018-08-28T01:56:09.687Z,87.40
2018-08-28T01:58:38.678Z,88.04
2018-08-28T02:01:07.753Z,87.87
2018-08-28T02:03:36.730Z,87.62
2018-08-28T02:06:05.999Z,87.19
2018-08-28T02:08:34.980Z,86.95
2018-08-28T02:11:04.126Z,87.00
2018-08-28T02:13:33.210Z,87.33
2018-08-28T02:16:02.424Z,87.22
2018-08-28T02:18:31.436Z,87.07
2018-08-28T02:21:00.434Z,86.88
2018-08-28T02:23:29.419Z,86.98
2018-08-28T02:25:58.439Z,86.21
2018-08-28T02:28:27.514Z,86.67
2018-08-28T02:30:56.510Z,87.10
2018-08-28T02:33:25.506Z,87.17
2018-08-28T02:35:57.506Z,87.36
2018-08-28T02:38:26.490Z,87.54
2018-08-28T02:40:55.499Z,87.02
2018-08-28T02:43:24.471Z,87.18
2018-08-28T02:45:53.443Z,87.31
2018-08-28T02:48:22.452Z,87.65
2018-08-28T02:50:51.415Z,87.02
2018-08-28T02:53:20.390Z,86.79
2018-08-28T02:55:49.403Z,86.99
2018-08-28T02:58:18.490Z,87.04
2018-08-28T03:00:47.492Z,86.92
2018-08-28T03:03:16.479Z,87.31
2018-08-28T03:05:45.450Z,86.91
2018-08-28T03:08:14.462Z,86.95
2018-08-28T03:10:43.440Z,86.84
2018-08-28T03:13:12.438Z,87.11
2018-08-28T03:15:41.514Z,87.00
2018-08-28T03:18:10.433Z,87.45
2018-08-28T03:20:39.412Z,87.86
2018-08-28T03:23:08.452Z,87.01
2018-08-28T03:25:37.452Z,87.17
2018-08-28T03:28:06.443Z,86.53
2018-08-28T03:30:35.447Z,86.92
2018-08-28T03:33:04.450Z,86.93
2018-08-28T03:35:33.493Z,86.82
2018-08-28T03:38:02.528Z,86.56
2018-08-28T03:40:31.477Z,86.89
2018-08-28T03:43:00.489Z,86.81
2018-08-28T03:45:29.555Z,86.59
2018-08-28T03:47:58.542Z,86.79
2018-08-28T03:50:27.598Z,87.41
2018-08-28T03:52:56.594Z,87.52
2018-08-28T03:55:25.619Z,87.59
2018-08-28T03:57:54.585Z,87.48
2018-08-28T04:00:23.579Z,87.36
2018-08-28T04:02:52.554Z,87.80
2018-08-28T04:05:21.790Z,87.44
2018-08-28T04:07:50.782Z,87.07
2018-08-28T04:10:19.755Z,87.58
2018-08-28T04:12:48.754Z,86.75
2018-08-28T04:15:17.730Z,86.96
2018-08-28T04:17:50.431Z,86.88
2018-08-28T04:20:20.551Z,87.37
2018-08-28T04:22:49.596Z,86.80
2018-08-28T04:25:19.095Z,87.07
2018-08-28T04:27:48.490Z,87.12
2018-08-28T04:30:17.597Z,87.00
2018-08-28T04:32:46.562Z,87.64
2018-08-28T04:35:15.551Z,87.80
2018-08-28T04:37:44.529Z,87.69
2018-08-28T04:40:13.538Z,87.03
2018-08-28T04:42:42.515Z,86.90
2018-08-28T04:45:11.503Z,87.37
2018-08-28T04:47:40.490Z,87.41
2018-08-28T04:50:09.532Z,88.08
2018-08-28T04:52:38.531Z,88.12
2018-08-28T04:55:07.502Z,88.24
2018-08-28T04:57:36.682Z,87.90
2018-08-28T05:00:07.299Z,87.54
2018-08-28T05:02:37.638Z,87.62
2018-08-28T05:05:08.518Z,87.70
2018-08-28T05:07:37.514Z,87.97
2018-08-28T05:10:07.216Z,87.82
2018-08-28T05:12:36.194Z,87.96
2018-08-28T05:15:05.397Z,88.26
2018-08-28T05:17:34.451Z,87.93
2018-08-28T05:20:03.483Z,87.76
2018-08-28T05:22:32.462Z,87.89
2018-08-28T05:25:01.677Z,88.00
2018-08-28T05:27:30.741Z,87.95
2018-08-28T05:29:59.747Z,87.89
2018-08-28T05:32:28.760Z,87.77
2018-08-28T05:34:57.722Z,87.58
2018-08-28T05:37:26.718Z,87.77
2018-08-28T05:39:55.702Z,87.91
2018-08-28T05:42:24.682Z,87.78
2018-08-28T05:44:53.690Z,87.82
2018-08-28T05:47:22.667Z,87.18
2018-08-28T05:49:51.933Z,87.34
2018-08-28T05:52:20.919Z,87.10
2018-08-28T05:54:49.901Z,86.60
2018-08-28T05:57:18.900Z,86.75
2018-08-28T05:59:47.954Z,86.56
2018-08-28T06:02:16.991Z,85.91
2018-08-28T06:04:45.981Z,85.39
2018-08-28T06:07:14.961Z,85.39
2018-08-28T06:09:44.022Z,85.17
2018-08-28T06:12:13.044Z,85.27
2018-08-28T06:14:42.096Z,85.38
2018-08-28T06:17:11.029Z,85.23
2018-08-28T06:19:40.038Z,84.70
2018-08-28T06:22:09.199Z,84.30
2018-08-28T06:24:38.183Z,84.22
2018-08-28T06:27:07.278Z,84.29
2018-08-28T06:29:36.255Z,83.37
2018-08-28T06:32:05.620Z,83.41
2018-08-28T06:34:34.664Z,83.65
2018-08-28T06:37:03.742Z,82.26
2018-08-28T06:39:32.751Z,81.66
2018-08-28T06:42:01.818Z,81.66
2018-08-28T06:44:30.858Z,80.46
2018-08-28T06:46:59.842Z,80.28
2018-08-28T06:49:28.948Z,80.05
2018-08-28T06:51:57.875Z,79.60
2018-08-28T06:54:26.848Z,79.70
2018-08-28T06:56:55.911Z,79.95
2018-08-28T06:59:24.832Z,79.22
2018-08-28T07:01:53.859Z,78.06
2018-08-28T07:04:22.840Z,77.73
2018-08-28T07:06:51.844Z,77.32
2018-08-28T07:09:20.810Z,76.21
2018-08-28T07:11:49.851Z,77.36
2018-08-28T07:14:18.854Z,77.40
2018-08-28T07:16:47.839Z,77.30
2018-08-28T07:19:17.226Z,76.77
2018-08-28T07:21:46.218Z,76.00
2018-08-28T07:24:15.265Z,76.01
2018-08-28T07:26:44.279Z,74.17
2018-08-28T07:29:13.270Z,74.55
2018-08-28T07:31:42.296Z,73.73
2018-08-28T07:34:11.276Z,73.18
2018-08-28T07:36:40.679Z,73.83
2018-08-28T07:39:09.766Z,72.60
2018-08-28T07:41:38.759Z,72.98
2018-08-28T07:44:07.859Z,73.93
2018-08-28T07:46:36.831Z,73.52
2018-08-28T07:49:06.682Z,72.79
2018-08-28T07:51:35.666Z,70.59
2018-08-28T07:54:04.662Z,71.70
2018-08-28T07:56:34.058Z,70.10
2018-08-28T07:59:03.078Z,70.79
2018-08-28T08:01:32.206Z,69.32
2018-08-28T08:04:01.084Z,65.62
2018-08-28T08:06:30.080Z,65.82
2018-08-28T08:08:59.058Z,61.11
2018-08-28T08:11:28.324Z,58.94
2018-08-28T08:13:57.314Z,59.54
2018-08-28T08:16:26.394Z,56.47
2018-08-28T08:18:55.406Z,57.95
2018-08-28T08:21:24.400Z,55.68
2018-08-28T08:23:53.442Z,55.92
2018-08-28T08:26:22.669Z,56.31
2018-08-28T08:28:51.654Z,54.91
2018-08-28T08:31:20.790Z,53.88
2018-08-28T08:33:49.786Z,55.61
2018-08-28T08:36:18.791Z,52.85
2018-08-28T08:38:47.766Z,54.36
2018-08-28T08:41:16.742Z,51.26
2018-08-28T08:43:45.767Z,54.13
2018-08-28T08:46:14.794Z,51.28
2018-08-28T08:48:43.807Z,52.72
2018-08-28T08:51:12.849Z,50.29
2018-08-28T08:53:41.837Z,51.58
2018-08-28T08:56:11.033Z,49.54
2018-08-28T08:58:40.023Z,50.68
2018-08-28T09:01:09.035Z,48.56
2018-08-28T09:03:38.013Z,47.71
2018-08-28T09:06:07.271Z,48.95
2018-08-28T09:08:36.197Z,48.51
2018-08-28T09:11:05.226Z,48.85
2018-08-28T09:13:34.359Z,49.69
2018-08-28T09:16:03.268Z,49.03
2018-08-28T09:18:32.277Z,49.57
2018-08-28T09:21:01.268Z,49.85
2018-08-28T09:23:30.259Z,50.59
2018-08-28T09:25:59.299Z,47.03
2018-08-28T09:28:28.267Z,47.68
2018-08-28T09:30:57.283Z,47.83
2018-08-28T09:33:26.261Z,47.37
2018-08-28T09:35:55.565Z,46.66
2018-08-28T09:38:24.623Z,47.14
2018-08-28T09:40:53.522Z,47.82
2018-08-28T09:43:22.530Z,48.36
2018-08-28T09:45:51.706Z,46.87
2018-08-28T09:48:20.906Z,47.53
2018-08-28T09:50:49.714Z,46.01
2018-08-28T09:53:18.794Z,48.28
2018-08-28T09:55:47.774Z,45.71
2018-08-28T09:58:16.762Z,46.34
2018-08-28T10:00:51.102Z,46.87
2018-08-28T10:03:20.082Z,45.75
2018-08-28T10:05:49.154Z,46.00
2018-08-28T10:08:18.379Z,44.80
2018-08-28T10:10:47.428Z,46.43
2018-08-28T10:13:16.354Z,46.34
2018-08-28T10:15:45.371Z,45.75
2018-08-28T10:18:14.385Z,45.34
2018-08-28T10:20:43.362Z,44.97
2018-08-28T10:23:12.382Z,43.84
2018-08-28T10:25:41.371Z,45.67
2018-08-28T10:28:10.365Z,44.64
2018-08-28T10:30:39.446Z,44.26
2018-08-28T10:33:08.422Z,45.07
2018-08-28T10:35:37.696Z,45.70
2018-08-28T10:38:06.720Z,45.90
2018-08-28T10:40:35.658Z,45.84
2018-08-28T10:43:04.703Z,44.50
2018-08-28T10:45:33.668Z,45.46
2018-08-28T10:48:02.715Z,44.69
2018-08-28T10:50:31.691Z,44.34
2018-08-28T10:53:00.702Z,44.73
2018-08-28T10:55:29.674Z,44.33
2018-08-28T10:57:58.666Z,43.03
2018-08-28T11:00:27.674Z,43.22
2018-08-28T11:02:56.650Z,43.71
2018-08-28T11:05:25.642Z,43.46
2018-08-28T11:07:54.635Z,43.49
2018-08-28T11:10:23.625Z,44.24
2018-08-28T11:12:52.878Z,42.59
2018-08-28T11:15:21.860Z,41.87
2018-08-28T11:17:50.826Z,42.07
2018-08-28T11:20:19.822Z,42.28
2018-08-28T11:22:48.857Z,41.61
2018-08-28T11:25:17.795Z,43.19
2018-08-28T11:27:46.802Z,41.21
2018-08-28T11:30:15.822Z,40.93
2018-08-28T11:32:44.944Z,41.60
2018-08-28T11:35:13.964Z,42.28
2018-08-28T11:37:42.970Z,41.58
2018-08-28T11:40:11.946Z,40.46
2018-08-28T11:42:40.948Z,41.45
2018-08-28T11:45:09.923Z,42.36
2018-08-28T11:47:38.927Z,40.67
2018-08-28T11:50:07.918Z,41.60
2018-08-28T11:52:36.930Z,40.55
2018-08-28T11:55:06.220Z,40.69
2018-08-28T11:57:35.405Z,40.16
2018-08-28T12:00:04.923Z,40.04
2018-08-28T12:02:33.919Z,38.39
2018-08-28T12:05:02.969Z,39.03
2018-08-28T12:07:31.946Z,38.74
2018-08-28T12:10:00.936Z,39.43
2018-08-28T12:12:29.944Z,39.51
2018-08-28T12:14:58.939Z,40.07
2018-08-28T12:17:27.931Z,38.74
2018-08-28T12:19:56.914Z,39.32
2018-08-28T12:22:25.914Z,39.09
2018-08-28T12:24:54.912Z,38.54
2018-08-28T12:27:23.903Z,37.55
2018-08-28T12:29:52.899Z,38.78
2018-08-28T12:32:21.883Z,39.41
2018-08-28T12:34:50.887Z,38.96
2018-08-28T12:37:19.863Z,38.86
2018-08-28T12:39:48.834Z,38.44
2018-08-28T12:42:17.823Z,37.43
2018-08-28T12:44:46.802Z,36.99
2018-08-28T12:47:15.794Z,38.30
2018-08-28T12:49:44.787Z,37.35
2018-08-28T12:52:13.865Z,38.25
2018-08-28T12:54:42.801Z,35.88
2018-08-28T12:57:11.814Z,37.73
2018-08-28T12:59:40.818Z,37.31
2018-08-28T13:02:09.927Z,37.52
2018-08-28T13:04:38.890Z,36.75
2018-08-28T13:07:07.881Z,36.54
2018-08-28T13:09:36.850Z,37.50
2018-08-28T13:12:05.846Z,36.77
2018-08-28T13:14:34.878Z,36.47
2018-08-28T13:17:03.908Z,38.11
2018-08-28T13:19:32.890Z,38.01
2018-08-28T13:22:01.924Z,35.28
2018-08-28T13:24:30.986Z,37.13
2018-08-28T13:27:00.042Z,36.69
2018-08-28T13:29:29.067Z,37.82
2018-08-28T13:31:58.099Z,36.27
2018-08-28T13:34:27.110Z,34.94
2018-08-28T13:36:57.323Z,36.80
2018-08-28T13:39:26.309Z,36.37
2018-08-28T13:41:55.332Z,36.43
2018-08-28T13:44:24.394Z,37.67
2018-08-28T13:46:53.394Z,36.64
2018-08-28T13:49:22.426Z,36.78
2018-08-28T13:51:51.429Z,34.76
2018-08-28T13:54:20.477Z,35.37
2018-08-28T13:56:49.413Z,35.06
2018-08-28T13:59:18.418Z,35.46
2018-08-28T14:01:47.404Z,35.38
2018-08-28T14:04:16.686Z,35.62
2018-08-28T14:06:45.699Z,33.47
2018-08-28T14:09:14.677Z,35.01
2018-08-28T14:11:45.086Z,35.28
2018-08-28T14:14:14.106Z,35.20
2018-08-28T14:16:43.143Z,35.14
2018-08-28T14:19:12.126Z,34.68
2018-08-28T14:21:41.129Z,34.31
2018-08-28T14:24:10.279Z,35.00
2018-08-28T14:26:39.552Z,35.60
2018-08-28T14:29:08.571Z,35.51
2018-08-28T14:31:37.521Z,34.51
2018-08-28T14:34:06.519Z,35.56
2018-08-28T14:36:35.494Z,35.74
2018-08-28T14:39:05.883Z,35.51
2018-08-28T14:41:34.859Z,35.07
2018-08-28T14:44:04.030Z,34.72
2018-08-28T14:46:33.008Z,34.50
2018-08-28T14:49:02.286Z,36.74
2018-08-28T14:51:31.263Z,36.57
2018-08-28T14:54:00.266Z,35.93
2018-08-28T14:56:29.437Z,37.33
2018-08-28T14:58:58.458Z,36.23
2018-08-28T15:01:27.559Z,33.43
2018-08-28T15:03:56.546Z,35.13
2018-08-28T15:06:25.635Z,35.28
2018-08-28T15:08:54.627Z,35.43
2018-08-28T15:11:23.647Z,35.49
2018-08-28T15:13:52.674Z,35.93
2018-08-28T15:16:21.674Z,36.38
2018-08-28T15:18:50.691Z,36.57
2018-08-28T15:21:19.704Z,34.75
2018-08-28T15:23:48.953Z,35.63
2018-08-28T15:26:18.027Z,35.99
2018-08-28T15:28:47.024Z,36.66
2018-08-28T15:31:15.999Z,36.40
2018-08-28T15:33:44.980Z,37.17
2018-08-28T15:36:13.966Z,37.44
2018-08-28T15:38:43.267Z,37.82
2018-08-28T15:41:12.055Z,36.28
2018-08-28T15:43:41.042Z,36.47
2018-08-28T15:46:10.038Z,36.40
2018-08-28T15:48:39.050Z,38.55
2018-08-28T15:51:08.129Z,38.05
2018-08-28T15:53:37.091Z,37.86
2018-08-28T15:56:06.070Z,39.21
2018-08-28T15:58:35.055Z,38.23
2018-08-28T16:01:04.140Z,39.76
2018-08-28T16:03:33.194Z,39.10
2018-08-28T16:06:02.223Z,38.81
2018-08-28T16:08:31.247Z,38.91
2018-08-28T16:11:00.249Z,37.44
2018-08-28T16:13:29.258Z,38.05
2018-08-28T16:15:58.254Z,38.95
2018-08-28T16:18:27.266Z,39.09
2018-08-28T16:20:56.254Z,38.88
2018-08-28T16:23:32.681Z,38.35
2018-08-28T16:26:01.649Z,40.07
2018-08-28T16:28:30.837Z,39.09
2018-08-28T16:30:59.636Z,38.71
2018-08-28T16:33:28.628Z,38.49
2018-08-28T16:35:57.709Z,40.17
2018-08-28T16:38:26.612Z,40.33
2018-08-28T16:40:55.611Z,40.71
2018-08-28T16:43:24.582Z,42.20
2018-08-28T16:45:53.586Z,45.11
2018-08-28T16:48:22.724Z,46.05
2018-08-28T16:50:51.672Z,46.14
2018-08-28T16:53:20.696Z,47.77
2018-08-28T16:55:49.692Z,49.22
2018-08-28T16:58:18.822Z,49.23
2018-08-28T17:00:47.802Z,50.17
2018-08-28T17:03:16.806Z,51.19
2018-08-28T17:05:45.822Z,51.61
2018-08-28T17:08:14.834Z,52.34
2018-08-28T17:10:43.851Z,51.64
2018-08-28T17:13:12.859Z,52.99
2018-08-28T17:15:41.854Z,54.39
2018-08-28T17:18:10.895Z,54.71
2018-08-28T17:20:39.911Z,55.26
2018-08-28T17:23:08.954Z,56.04
2018-08-28T17:25:37.922Z,55.63
2018-08-28T17:28:06.917Z,56.61
2018-08-28T17:30:42.550Z,56.93
2018-08-28T17:33:11.599Z,58.59
2018-08-28T17:35:40.597Z,58.18
2018-08-28T17:38:10.030Z,57.89
2018-08-28T17:40:39.043Z,58.26
2018-08-28T17:43:08.264Z,58.37
2018-08-28T17:45:37.234Z,58.49
2018-08-28T17:48:06.348Z,59.35
2018-08-28T17:50:35.380Z,58.43
2018-08-28T17:53:05.114Z,58.79
2018-08-28T17:55:34.092Z,58.99
2018-08-28T17:58:03.202Z,59.98
2018-08-28T18:00:32.174Z,60.22
2018-08-28T18:03:01.163Z,59.78
2018-08-28T18:05:30.178Z,60.66
2018-08-28T18:07:59.179Z,60.14
2018-08-28T18:10:28.167Z,61.05
2018-08-28T18:12:57.194Z,61.32
2018-08-28T18:15:26.331Z,61.83
2018-08-28T18:17:55.296Z,62.75
2018-08-28T18:20:24.345Z,63.26
2018-08-28T18:22:53.340Z,63.42
2018-08-28T18:25:22.405Z,63.70
2018-08-28T18:27:51.553Z,63.79
2018-08-28T18:30:21.024Z,64.49
2018-08-28T18:32:50.044Z,64.64
2018-08-28T18:35:19.579Z,65.31
2018-08-28T18:37:48.539Z,65.86
2018-08-28T18:40:17.550Z,66.25
2018-08-28T18:42:46.556Z,66.61
2018-08-28T18:45:15.546Z,66.62
2018-08-28T18:47:44.543Z,66.45
2018-08-28T18:50:13.530Z,67.51
2018-08-28T18:52:42.590Z,67.00
2018-08-28T18:55:11.572Z,67.13
2018-08-28T18:57:40.582Z,66.59
2018-08-28T19:00:09.558Z,66.60
2018-08-28T19:02:38.638Z,66.23
2018-08-28T19:05:07.558Z,65.68
2018-08-28T19:07:36.569Z,64.51
2018-08-28T19:10:05.548Z,64.98
2018-08-28T19:12:34.513Z,65.08
2018-08-28T19:15:03.528Z,64.73
2018-08-28T19:17:32.493Z,64.62
2018-08-28T19:20:02.402Z,65.35
2018-08-28T19:22:31.391Z,65.38
2018-08-28T19:25:00.381Z,65.56
2018-08-28T19:27:29.374Z,65.58
2018-08-28T19:29:58.438Z,66.19
2018-08-28T19:32:27.802Z,66.15
2018-08-28T19:34:56.766Z,66.72
2018-08-28T19:37:25.883Z,66.99
2018-08-28T19:39:54.841Z,66.71
2018-08-28T19:42:23.876Z,66.69
2018-08-28T19:44:52.927Z,66.52
2018-08-28T19:47:21.898Z,66.72
2018-08-28T19:49:51.010Z,66.85
2018-08-28T19:52:19.930Z,67.25
2018-08-28T19:54:49.101Z,67.55
2018-08-28T19:57:18.059Z,67.35
2018-08-28T19:59:47.243Z,67.12
2018-08-28T20:02:16.279Z,67.38
2018-08-28T20:04:45.351Z,67.35
2018-08-28T20:07:14.350Z,67.52
2018-08-28T20:09:43.333Z,67.74
2018-08-28T20:12:12.335Z,67.47
2018-08-28T20:14:41.529Z,67.84
2018-08-28T20:17:10.465Z,67.24
2018-08-28T20:19:39.413Z,67.09
2018-08-28T20:22:10.839Z,65.60
2018-08-28T20:24:39.980Z,64.30
2018-08-28T20:27:09.119Z,63.88
2018-08-28T20:29:38.132Z,63.87
2018-08-28T20:32:07.395Z,62.80
2018-08-28T20:34:36.302Z,61.53
2018-08-28T20:37:05.427Z,61.86
2018-08-28T20:39:34.428Z,61.95
2018-08-28T20:42:03.401Z,62.15
2018-08-28T20:44:32.378Z,61.33
2018-08-28T20:47:01.371Z,62.22
2018-08-28T20:49:30.339Z,62.33
2018-08-28T20:51:59.334Z,63.06
2018-08-28T20:54:28.324Z,63.88
2018-08-28T20:56:57.319Z,64.72
2018-08-28T20:59:26.303Z,65.61
2018-08-28T21:01:55.410Z,66.22
2018-08-28T21:04:24.626Z,65.98
2018-08-28T21:06:53.660Z,66.16
2018-08-28T21:09:22.626Z,64.32
2018-08-28T21:11:51.579Z,64.94
2018-08-28T21:14:20.567Z,63.00
2018-08-28T21:16:49.533Z,64.11
2018-08-28T21:19:18.541Z,63.90
2018-08-28T21:21:47.502Z,64.61
2018-08-28T21:24:16.538Z,63.66
2018-08-28T21:26:45.518Z,64.02
2018-08-28T21:29:14.523Z,63.77
2018-08-28T21:31:43.535Z,63.74
2018-08-28T21:34:12.499Z,64.37
2018-08-28T21:36:41.498Z,64.94
2018-08-28T21:39:10.465Z,64.85
2018-08-28T21:41:39.501Z,64.59
2018-08-28T21:44:08.478Z,64.65
2018-08-28T21:46:37.482Z,64.42
2018-08-28T21:49:06.481Z,64.36
2018-08-28T21:51:35.473Z,65.14
2018-08-28T21:54:04.531Z,65.01
2018-08-28T21:56:33.490Z,65.65
2018-08-28T21:59:02.504Z,66.13
2018-08-28T22:01:31.457Z,66.19
2018-08-28T22:04:00.467Z,66.65
2018-08-28T22:06:34.787Z,65.57
2018-08-28T22:09:04.770Z,65.41
2018-08-28T22:11:33.950Z,66.06
2018-08-28T22:14:02.978Z,65.41
2018-08-28T22:16:31.986Z,65.76
2018-08-28T22:19:01.015Z,65.52
2018-08-28T22:21:29.978Z,65.87
2018-08-28T22:23:58.971Z,65.76
2018-08-28T22:26:27.958Z,65.90
2018-08-28T22:28:56.932Z,65.28
2018-08-28T22:31:25.964Z,65.29
2018-08-28T22:33:54.935Z,64.35
2018-08-28T22:36:24.062Z,63.44
2018-08-28T22:38:53.053Z,63.17
2018-08-28T22:41:22.025Z,62.04
2018-08-28T22:43:51.013Z,61.16
2018-08-28T22:46:19.972Z,61.63
2018-08-28T22:48:49.274Z,61.03
2018-08-28T22:51:18.242Z,60.92
2018-08-28T22:53:47.219Z,60.50
2018-08-28T22:56:16.216Z,60.11
2018-08-28T22:58:45.286Z,59.79
2018-08-28T23:01:14.254Z,59.90
2018-08-28T23:03:43.234Z,59.86
2018-08-28T23:06:12.229Z,60.97
2018-08-28T23:08:41.202Z,60.79
2018-08-28T23:11:10.311Z,61.32
2018-08-28T23:13:39.286Z,60.55
2018-08-28T23:16:08.273Z,60.88
2018-08-28T23:18:37.414Z,61.18
2018-08-28T23:21:06.391Z,61.38
2018-08-28T23:23:35.390Z,62.13
2018-08-28T23:26:04.575Z,60.39
2018-08-28T23:28:33.574Z,61.58
2018-08-28T23:31:02.574Z,61.47
2018-08-28T23:33:31.573Z,60.52
2018-08-28T23:36:00.538Z,60.84
2018-08-28T23:38:29.590Z,61.43
2018-08-28T23:40:58.574Z,60.52
2018-08-28T23:43:27.542Z,60.48
2018-08-28T23:45:56.525Z,60.25
2018-08-28T23:48:25.810Z,60.37
2018-08-28T23:50:54.807Z,60.95
2018-08-28T23:53:23.866Z,60.45
2018-08-28T23:55:52.951Z,60.85
2018-08-28T23:58:21.828Z,61.79
